createdAt,value
2022-09-18T00:00:17.871Z,100.00
2022-09-18T00:02:49.987Z,100.00
2022-09-18T00:05:22.615Z,100.00
2022-09-18T00:07:52.692Z,100.00
2022-09-18T00:10:22.979Z,100.00
2022-09-18T00:12:56.550Z,100.00
2022-09-18T00:15:26.795Z,100.00
2022-09-18T00:17:56.829Z,100.00
2022-09-18T00:20:29.674Z,100.00
2022-09-18T00:22:59.664Z,100.00
2022-09-18T00:25:29.768Z,100.00
2022-09-18T00:28:02.659Z,100.00
2022-09-18T00:30:35.795Z,100.00
2022-09-18T00:33:06.056Z,100.00
2022-09-18T00:35:47.593Z,100.00
2022-09-18T00:38:17.687Z,100.00
2022-09-18T00:40:47.759Z,100.00
2022-09-18T00:43:23.107Z,100.00
2022-09-18T00:46:00.006Z,100.00
2022-09-18T00:48:42.265Z,100.00
2022-09-18T00:51:16.087Z,100.00
2022-09-18T00:53:55.533Z,100.00
2022-09-18T00:56:31.282Z,100.00
2022-09-18T00:59:01.946Z,100.00
2022-09-18T01:01:32.368Z,100.00
2022-09-18T01:04:07.629Z,100.00
2022-09-18T01:06:50.987Z,100.00
2022-09-18T01:09:35.971Z,100.00
2022-09-18T01:12:22.352Z,100.00
2022-09-18T01:15:03.092Z,100.00
2022-09-18T01:17:44.141Z,100.00
2022-09-18T01:20:35.114Z,100.00
2022-09-18T01:23:38.268Z,100.00
2022-09-18T01:26:28.545Z,100.00
2022-09-18T01:29:14.538Z,100.00
2022-09-18T01:31:52.591Z,100.00
2022-09-18T01:34:36.207Z,100.00
2022-09-18T01:37:14.605Z,100.00
2022-09-18T01:39:55.512Z,100.00
2022-09-18T01:42:31.553Z,100.00
2022-09-18T01:45:12.628Z,100.00
2022-09-18T01:47:53.553Z,100.00
2022-09-18T01:50:27.376Z,100.00
2022-09-18T01:53:04.529Z,100.00
2022-09-18T01:55:39.765Z,100.00
2022-09-18T01:58:21.635Z,100.00
2022-09-18T02:01:01.362Z,100.00
2022-09-18T02:03:38.570Z,100.00
2022-09-18T02:06:20.503Z,100.00
2022-09-18T02:08:54.067Z,100.00
2022-09-18T02:11:27.529Z,100.00
2022-09-18T02:14:07.679Z,100.00
2022-09-18T02:17:03.818Z,100.00
2022-09-18T02:19:42.866Z,100.00
2022-09-18T02:22:18.219Z,100.00
2022-09-18T02:24:54.625Z,100.00
2022-09-18T02:27:28.078Z,100.00
2022-09-18T02:30:01.561Z,100.00
2022-09-18T02:32:41.725Z,100.00
2022-09-18T02:35:14.384Z,100.00
2022-09-18T02:37:58.874Z,100.00
2022-09-18T02:40:43.870Z,100.00
2022-09-18T02:43:37.362Z,100.00
2022-09-18T02:46:21.802Z,100.00
2022-09-18T02:49:08.522Z,100.00
2022-09-18T02:51:48.940Z,100.00
2022-09-18T02:54:28.415Z,100.00
2022-09-18T02:57:07.059Z,100.00
2022-09-18T02:59:44.869Z,100.00
2022-09-18T03:02:17.497Z,100.00
2022-09-18T03:04:53.643Z,100.00
2022-09-18T03:07:34.205Z,100.00
2022-09-18T03:10:13.238Z,100.00
2022-09-18T03:12:43.315Z,100.00
2022-09-18T03:15:16.941Z,100.00
2022-09-18T03:17:47.632Z,100.00
2022-09-18T03:20:20.753Z,100.00
2022-09-18T03:22:53.220Z,100.00
2022-09-18T03:25:26.104Z,100.00
2022-09-18T03:27:59.614Z,100.00
2022-09-18T03:30:41.094Z,100.00
2022-09-18T03:33:13.235Z,100.00
2022-09-18T03:35:48.511Z,100.00
2022-09-18T03:38:18.614Z,100.00
2022-09-18T03:40:49.650Z,100.00
2022-09-18T03:43:20.326Z,100.00
2022-09-18T03:45:53.074Z,100.00
2022-09-18T03:48:23.564Z,100.00
2022-09-18T03:51:00.382Z,100.00
2022-09-18T03:53:30.531Z,100.00
2022-09-18T03:56:21.926Z,100.00
2022-09-18T03:58:59.456Z,100.00
2022-09-18T04:01:53.778Z,100.00
2022-09-18T04:04:29.787Z,100.00
2022-09-18T04:07:25.669Z,100.00
2022-09-18T04:10:22.791Z,100.00
2022-09-18T04:12:58.368Z,100.00
2022-09-18T04:15:34.040Z,100.00
2022-09-18T04:18:07.050Z,100.00
2022-09-18T04:20:38.125Z,100.00
2022-09-18T04:23:14.675Z,100.00
2022-09-18T04:25:47.452Z,100.00
2022-09-18T04:28:17.812Z,100.00
2022-09-18T04:30:50.471Z,100.00
2022-09-18T04:33:20.627Z,100.00
2022-09-18T04:35:51.434Z,100.00
2022-09-18T04:38:27.711Z,100.00
2022-09-18T04:41:04.252Z,100.00
2022-09-18T04:43:34.636Z,100.00
2022-09-18T04:46:04.859Z,100.00
2022-09-18T04:48:35.218Z,100.00
2022-09-18T04:51:06.147Z,100.00
2022-09-18T04:53:51.851Z,100.00
2022-09-18T04:56:22.175Z,100.00
2022-09-18T04:58:54.609Z,100.00
2022-09-18T05:01:25.575Z,100.00
2022-09-18T05:03:55.693Z,100.00
2022-09-18T05:06:32.868Z,100.00
2022-09-18T05:09:06.485Z,100.00
2022-09-18T05:11:36.470Z,100.00
2022-09-18T05:14:11.786Z,100.00
2022-09-18T05:16:45.538Z,100.00
2022-09-18T05:19:32.347Z,100.00
2022-09-18T05:22:07.732Z,100.00
2022-09-18T05:24:45.824Z,100.00
2022-09-18T05:27:17.029Z,100.00
2022-09-18T05:29:47.332Z,100.00
2022-09-18T05:32:21.853Z,100.00
2022-09-18T05:34:53.536Z,100.00
2022-09-18T05:37:23.593Z,100.00
2022-09-18T05:39:59.668Z,100.00
2022-09-18T05:42:29.807Z,100.00
2022-09-18T05:45:02.181Z,100.00
2022-09-18T05:47:35.327Z,100.00
2022-09-18T05:50:05.978Z,100.00
2022-09-18T05:52:36.363Z,100.00
2022-09-18T05:55:12.063Z,100.00
2022-09-18T05:57:44.460Z,100.00
2022-09-18T06:00:17.329Z,100.00
2022-09-18T06:02:56.735Z,100.00
2022-09-18T06:05:27.808Z,100.00
2022-09-18T06:07:59.905Z,100.00
2022-09-18T06:10:33.039Z,100.00
2022-09-18T06:13:04.563Z,100.00
2022-09-18T06:15:35.196Z,100.00
2022-09-18T06:18:08.872Z,100.00
2022-09-18T06:20:39.424Z,100.00
2022-09-18T06:23:09.616Z,100.00
2022-09-18T06:26:05.849Z,100.00
2022-09-18T06:28:37.754Z,100.00
2022-09-18T06:31:08.862Z,100.00
2022-09-18T06:33:58.551Z,100.00
2022-09-18T06:36:28.615Z,100.00
2022-09-18T06:39:18.651Z,100.00
2022-09-18T06:41:54.237Z,100.00
2022-09-18T06:44:34.426Z,100.00
2022-09-18T06:47:08.498Z,100.00
2022-09-18T06:49:43.747Z,100.00
2022-09-18T06:52:13.743Z,100.00
2022-09-18T06:54:43.921Z,100.00
2022-09-18T06:57:24.367Z,100.00
2022-09-18T06:59:54.383Z,100.00
2022-09-18T07:02:24.575Z,100.00
2022-09-18T07:05:14.931Z,100.00
2022-09-18T07:07:48.676Z,100.00
2022-09-18T07:10:20.018Z,100.00
2022-09-18T07:12:52.957Z,100.00
2022-09-18T07:15:23.460Z,100.00
2022-09-18T07:17:53.620Z,100.00
2022-09-18T07:20:23.823Z,100.00
2022-09-18T07:22:58.398Z,99.85
2022-09-18T07:25:40.986Z,99.08
2022-09-18T07:28:14.633Z,98.67
2022-09-18T07:30:53.847Z,99.10
2022-09-18T07:33:24.585Z,99.05
2022-09-18T07:35:55.468Z,97.60
2022-09-18T07:38:27.284Z,94.82
2022-09-18T07:41:00.680Z,93.26
2022-09-18T07:43:37.819Z,93.50
2022-09-18T07:46:08.546Z,92.26
2022-09-18T07:48:41.491Z,90.49
2022-09-18T07:51:26.115Z,87.56
2022-09-18T07:53:57.726Z,84.24
2022-09-18T07:56:57.102Z,82.52
2022-09-18T07:59:33.829Z,79.93
2022-09-18T08:02:07.456Z,80.62
2022-09-18T08:04:39.946Z,81.59
2022-09-18T08:07:28.617Z,82.36
2022-09-18T08:10:12.105Z,84.14
2022-09-18T08:13:02.740Z,84.17
2022-09-18T08:15:54.172Z,83.25
2022-09-18T08:18:43.105Z,79.39
2022-09-18T08:21:33.109Z,76.54
2022-09-18T08:24:06.942Z,67.20
2022-09-18T08:26:39.894Z,69.02
2022-09-18T08:29:10.687Z,72.34
2022-09-18T08:31:43.990Z,76.40
2022-09-18T08:34:17.330Z,76.32
2022-09-18T08:36:48.304Z,71.49
2022-09-18T08:39:44.581Z,71.75
2022-09-18T08:42:43.284Z,73.82
2022-09-18T08:45:39.368Z,69.40
2022-09-18T08:48:20.647Z,70.29
2022-09-18T08:51:00.036Z,64.18
2022-09-18T08:53:36.838Z,62.27
2022-09-18T08:56:28.168Z,65.62
2022-09-18T08:59:24.437Z,65.87
2022-09-18T09:02:17.632Z,67.82
2022-09-18T09:04:53.018Z,68.22
2022-09-18T09:07:58.543Z,66.84
2022-09-18T09:10:54.609Z,64.50
2022-09-18T09:14:39.606Z,63.23
2022-09-18T09:17:20.824Z,59.49
2022-09-18T09:19:57.509Z,57.45
2022-09-18T09:22:41.052Z,48.84
2022-09-18T09:25:23.907Z,46.18
2022-09-18T09:28:17.949Z,45.82
2022-09-18T09:31:22.415Z,43.60
2022-09-18T09:34:35.710Z,42.84
2022-09-18T09:37:42.666Z,41.22
2022-09-18T09:40:21.333Z,42.40
2022-09-18T09:42:57.644Z,44.02
2022-09-18T09:45:32.276Z,48.22
2022-09-18T09:48:10.864Z,49.45
2022-09-18T09:50:53.551Z,50.78
2022-09-18T09:53:30.166Z,52.26
2022-09-18T09:56:12.808Z,47.16
2022-09-18T09:59:02.957Z,49.17
2022-09-18T10:01:47.678Z,49.54
2022-09-18T10:04:39.185Z,51.07
2022-09-18T10:07:20.650Z,50.52
2022-09-18T10:10:03.667Z,44.80
2022-09-18T10:12:46.420Z,45.98
2022-09-18T10:15:22.860Z,49.81
2022-09-18T10:17:59.746Z,52.56
2022-09-18T10:20:32.429Z,51.97
2022-09-18T10:23:12.125Z,50.31
2022-09-18T10:25:52.626Z,50.08
2022-09-18T10:28:25.853Z,53.45
2022-09-18T10:31:00.779Z,56.30
2022-09-18T10:33:37.193Z,59.21
2022-09-18T10:36:22.726Z,64.27
2022-09-18T10:38:54.973Z,68.52
2022-09-18T10:41:45.594Z,72.71
2022-09-18T10:44:25.941Z,74.19
2022-09-18T10:47:09.289Z,68.89
2022-09-18T10:49:51.275Z,66.22
2022-09-18T10:52:35.097Z,64.41
2022-09-18T10:55:22.358Z,66.47
2022-09-18T10:58:16.722Z,64.44
2022-09-18T11:00:59.229Z,64.28
2022-09-18T11:03:43.348Z,62.00
2022-09-18T11:06:23.983Z,55.96
2022-09-18T11:08:58.985Z,50.70
2022-09-18T11:11:33.306Z,47.35
2022-09-18T11:14:23.635Z,50.37
2022-09-18T11:17:05.691Z,50.04
2022-09-18T11:19:42.438Z,48.94
2022-09-18T11:22:38.429Z,51.63
2022-09-18T11:25:26.663Z,53.16
2022-09-18T11:28:03.713Z,54.96
2022-09-18T11:30:41.894Z,55.68
2022-09-18T11:33:29.196Z,57.71
2022-09-18T11:36:07.725Z,59.84
2022-09-18T11:38:43.132Z,61.16
2022-09-18T11:41:16.427Z,62.43
2022-09-18T11:44:03.445Z,61.33
2022-09-18T11:46:51.973Z,62.63
2022-09-18T11:49:28.680Z,63.91
2022-09-18T11:52:02.117Z,64.75
2022-09-18T11:54:49.604Z,65.87
2022-09-18T11:57:23.912Z,64.72
2022-09-18T12:00:01.575Z,65.84
2022-09-18T12:02:43.229Z,66.92
2022-09-18T12:05:23.260Z,68.05
2022-09-18T12:08:06.240Z,68.72
2022-09-18T12:10:54.575Z,66.31
2022-09-18T12:13:39.749Z,64.45
2022-09-18T12:16:19.251Z,64.04
2022-09-18T12:19:03.391Z,63.95
2022-09-18T12:21:44.462Z,64.29
2022-09-18T12:24:18.453Z,65.13
2022-09-18T12:27:07.856Z,64.66
2022-09-18T12:29:57.420Z,64.23
2022-09-18T12:32:52.037Z,64.21
2022-09-18T12:35:38.887Z,63.99
2022-09-18T12:38:28.179Z,64.65
2022-09-18T12:41:15.780Z,66.41
2022-09-18T12:44:06.969Z,66.41
2022-09-18T12:46:50.838Z,68.73
2022-09-18T12:49:51.170Z,69.37
2022-09-18T12:52:55.511Z,70.40
2022-09-18T12:55:57.347Z,69.90
2022-09-18T12:59:05.733Z,69.19
2022-09-18T13:01:41.097Z,70.62
2022-09-18T13:04:23.646Z,72.22
2022-09-18T13:07:09.693Z,73.22
2022-09-18T13:09:46.777Z,72.20
2022-09-18T13:12:22.680Z,72.24
2022-09-18T13:14:57.970Z,73.27
2022-09-18T13:17:38.201Z,73.19
2022-09-18T13:20:19.225Z,73.56
2022-09-18T13:22:53.926Z,73.80
2022-09-18T13:25:36.133Z,74.29
2022-09-18T13:28:12.421Z,75.28
2022-09-18T13:30:42.916Z,75.84
2022-09-18T13:33:27.687Z,76.90
2022-09-18T13:36:00.359Z,79.70
2022-09-18T13:38:32.080Z,80.62
2022-09-18T13:41:09.376Z,83.83
2022-09-18T13:43:48.633Z,85.30
2022-09-18T13:46:39.886Z,87.39
2022-09-18T13:49:23.045Z,89.62
2022-09-18T13:51:53.200Z,91.60
2022-09-18T13:54:31.797Z,94.39
2022-09-18T13:57:32.270Z,98.65
2022-09-18T14:00:07.938Z,99.58
2022-09-18T14:02:45.608Z,100.00
2022-09-18T14:05:33.612Z,100.00
2022-09-18T14:08:07.936Z,100.00
2022-09-18T14:11:04.957Z,100.00
2022-09-18T14:13:54.339Z,100.00
2022-09-18T14:16:35.633Z,100.00
2022-09-18T14:19:10.534Z,100.00
2022-09-18T14:21:45.462Z,100.00
2022-09-18T14:24:58.159Z,100.00
2022-09-18T14:27:49.955Z,100.00
2022-09-18T14:30:29.258Z,100.00
2022-09-18T14:33:23.934Z,100.00
2022-09-18T14:36:00.041Z,100.00
2022-09-18T14:38:37.932Z,100.00
2022-09-18T14:41:19.466Z,100.00
2022-09-18T14:43:57.154Z,100.00
2022-09-18T14:46:31.023Z,100.00
2022-09-18T14:49:03.158Z,100.00
2022-09-18T14:51:54.631Z,100.00
2022-09-18T14:54:28.106Z,100.00
2022-09-18T14:57:03.052Z,100.00
2022-09-18T14:59:34.339Z,100.00
2022-09-18T15:02:36.432Z,100.00
2022-09-18T15:05:13.544Z,100.00
2022-09-18T15:07:51.519Z,100.00
2022-09-18T15:10:22.069Z,100.00
2022-09-18T15:12:52.942Z,100.00
2022-09-18T15:15:33.765Z,100.00
2022-09-18T15:18:06.955Z,100.00
2022-09-18T15:20:37.045Z,100.00
2022-09-18T15:23:23.226Z,100.00
2022-09-18T15:25:57.232Z,100.00
2022-09-18T15:28:30.066Z,100.00
2022-09-18T15:31:06.353Z,100.00
2022-09-18T15:33:49.940Z,100.00
2022-09-18T15:36:29.314Z,100.00
2022-09-18T15:39:00.707Z,100.00
2022-09-18T15:41:41.845Z,100.00
2022-09-18T15:45:14.062Z,100.00
2022-09-18T15:47:45.105Z,100.00
2022-09-18T15:50:42.360Z,100.00
2022-09-18T15:53:33.260Z,100.00
2022-09-18T15:56:08.264Z,100.00
2022-09-18T15:58:48.960Z,100.00
2022-09-18T16:01:24.170Z,100.00
2022-09-18T16:04:10.506Z,100.00
2022-09-18T16:06:54.444Z,100.00
2022-09-18T16:09:37.788Z,100.00
2022-09-18T16:12:37.660Z,100.00
2022-09-18T16:15:21.815Z,100.00
2022-09-18T16:18:27.393Z,100.00
2022-09-18T16:21:08.911Z,100.00
2022-09-18T16:23:53.205Z,100.00
2022-09-18T16:26:31.402Z,100.00
2022-09-18T16:29:04.367Z,100.00
2022-09-18T16:31:37.591Z,100.00
2022-09-18T16:34:22.968Z,100.00
2022-09-18T16:36:53.875Z,100.00
2022-09-18T16:39:29.441Z,100.00
2022-09-18T16:41:59.542Z,100.00
2022-09-18T16:44:29.803Z,100.00
2022-09-18T16:47:08.394Z,100.00
2022-09-18T16:49:42.804Z,100.00
2022-09-18T16:52:16.501Z,100.00
2022-09-18T16:54:49.202Z,100.00
2022-09-18T16:57:25.023Z,100.00
2022-09-18T16:59:55.412Z,100.00
2022-09-18T17:02:26.269Z,100.00
2022-09-18T17:04:56.442Z,100.00
2022-09-18T17:07:26.465Z,100.00
2022-09-18T17:09:59.590Z,100.00
2022-09-18T17:12:29.816Z,100.00
2022-09-18T17:14:59.962Z,100.00
2022-09-18T17:17:29.936Z,100.00
2022-09-18T17:20:00.270Z,100.00
2022-09-18T17:22:31.414Z,100.00
2022-09-18T17:25:03.861Z,100.00
2022-09-18T17:27:34.661Z,100.00
2022-09-18T17:30:05.005Z,100.00
2022-09-18T17:32:35.305Z,100.00
2022-09-18T17:35:05.551Z,100.00
2022-09-18T17:37:35.691Z,100.00
2022-09-18T17:40:10.388Z,100.00
2022-09-18T17:42:41.622Z,100.00
2022-09-18T17:45:12.991Z,100.00
2022-09-18T17:47:43.136Z,100.00
2022-09-18T17:50:13.340Z,100.00
2022-09-18T17:52:43.440Z,100.00
2022-09-18T17:55:16.169Z,100.00
2022-09-18T17:57:46.305Z,100.00
2022-09-18T18:00:16.739Z,100.00
2022-09-18T18:02:46.875Z,100.00
2022-09-18T18:05:17.104Z,100.00
2022-09-18T18:07:49.135Z,100.00
2022-09-18T18:10:21.850Z,100.00
2022-09-18T18:12:52.010Z,100.00
2022-09-18T18:15:22.086Z,100.00
2022-09-18T18:17:53.544Z,100.00
2022-09-18T18:20:23.636Z,100.00
2022-09-18T18:22:53.688Z,100.00
2022-09-18T18:25:27.356Z,100.00
2022-09-18T18:27:58.068Z,100.00
2022-09-18T18:30:28.416Z,100.00
2022-09-18T18:32:58.539Z,100.00
2022-09-18T18:35:28.950Z,100.00
2022-09-18T18:37:59.138Z,100.00
2022-09-18T18:40:31.982Z,100.00
2022-09-18T18:43:06.174Z,100.00
2022-09-18T18:45:37.568Z,100.00
2022-09-18T18:48:09.893Z,100.00
2022-09-18T18:50:43.949Z,100.00
2022-09-18T18:53:15.805Z,100.00
2022-09-18T18:55:49.361Z,100.00
2022-09-18T18:58:19.481Z,100.00
2022-09-18T19:00:52.092Z,100.00
2022-09-18T19:03:22.291Z,100.00
2022-09-18T19:05:52.420Z,100.00
2022-09-18T19:08:23.566Z,100.00
2022-09-18T19:11:01.751Z,100.00
2022-09-18T19:13:44.357Z,100.00
2022-09-18T19:16:16.164Z,100.00
2022-09-18T19:18:46.361Z,100.00
2022-09-18T19:21:16.645Z,100.00
2022-09-18T19:23:46.862Z,100.00
2022-09-18T19:26:19.999Z,100.00
2022-09-18T19:28:53.863Z,100.00
2022-09-18T19:31:27.959Z,100.00
2022-09-18T19:33:58.079Z,100.00
2022-09-18T19:36:31.597Z,100.00
2022-09-18T19:39:04.167Z,100.00
2022-09-18T19:41:43.442Z,100.00
2022-09-18T19:44:19.350Z,100.00
2022-09-18T19:46:49.888Z,100.00
2022-09-18T19:49:22.948Z,100.00
2022-09-18T19:51:53.082Z,100.00
2022-09-18T19:54:23.212Z,100.00
2022-09-18T19:56:55.898Z,100.00
2022-09-18T19:59:25.958Z,100.00
2022-09-18T20:01:57.673Z,100.00
2022-09-18T20:04:27.927Z,100.00
2022-09-18T20:06:57.926Z,100.00
2022-09-18T20:09:30.685Z,100.00
2022-09-18T20:12:04.412Z,100.00
2022-09-18T20:14:34.533Z,100.00
2022-09-18T20:17:04.794Z,100.00
2022-09-18T20:19:34.859Z,100.00
2022-09-18T20:22:05.146Z,100.00
2022-09-18T20:24:35.727Z,100.00
2022-09-18T20:27:08.746Z,100.00
2022-09-18T20:29:39.070Z,100.00
2022-09-18T20:32:12.366Z,100.00
2022-09-18T20:34:47.128Z,100.00
2022-09-18T20:37:17.959Z,100.00
2022-09-18T20:39:48.002Z,100.00
2022-09-18T20:42:20.629Z,100.00
2022-09-18T20:44:51.873Z,100.00
2022-09-18T20:47:21.961Z,100.00
2022-09-18T20:49:53.134Z,100.00
2022-09-18T20:52:23.722Z,100.00
2022-09-18T20:54:53.764Z,100.00
2022-09-18T20:57:27.845Z,100.00
2022-09-18T20:59:58.019Z,100.00
2022-09-18T21:02:35.346Z,100.00
2022-09-18T21:05:17.411Z,100.00
2022-09-18T21:07:48.368Z,100.00
2022-09-18T21:10:18.783Z,100.00
2022-09-18T21:12:54.836Z,100.00
2022-09-18T21:15:25.123Z,100.00
2022-09-18T21:17:55.384Z,100.00
2022-09-18T21:20:25.649Z,100.00
2022-09-18T21:23:08.201Z,100.00
2022-09-18T21:25:38.222Z,100.00
2022-09-18T21:28:10.904Z,100.00
2022-09-18T21:30:40.990Z,100.00
2022-09-18T21:33:12.121Z,100.00
2022-09-18T21:35:42.635Z,100.00
2022-09-18T21:38:13.073Z,100.00
2022-09-18T21:40:43.675Z,100.00
2022-09-18T21:43:17.355Z,100.00
2022-09-18T21:45:48.234Z,100.00
2022-09-18T21:48:18.742Z,100.00
2022-09-18T21:50:48.924Z,100.00
2022-09-18T21:53:19.356Z,100.00
2022-09-18T21:55:49.533Z,100.00
2022-09-18T21:58:26.072Z,100.00
2022-09-18T22:00:56.546Z,100.00
2022-09-18T22:03:27.394Z,100.00
2022-09-18T22:05:57.488Z,100.00
2022-09-18T22:08:27.501Z,100.00
2022-09-18T22:11:04.361Z,100.00
2022-09-18T22:13:37.034Z,100.00
2022-09-18T22:16:07.725Z,100.00
2022-09-18T22:18:39.190Z,100.00
2022-09-18T22:21:20.874Z,100.00
2022-09-18T22:23:53.455Z,100.00
2022-09-18T22:26:25.008Z,100.00
2022-09-18T22:28:59.700Z,100.00
2022-09-18T22:31:30.280Z,100.00
2022-09-18T22:34:01.360Z,100.00
2022-09-18T22:36:31.940Z,100.00
2022-09-18T22:39:02.558Z,100.00
2022-09-18T22:41:32.774Z,100.00
2022-09-18T22:44:08.350Z,100.00
2022-09-18T22:46:44.427Z,100.00
2022-09-18T22:49:17.077Z,100.00
2022-09-18T22:51:50.706Z,100.00
2022-09-18T22:54:25.293Z,100.00
2022-09-18T22:56:57.416Z,100.00
2022-09-18T22:59:31.017Z,100.00
2022-09-18T23:02:04.287Z,100.00
2022-09-18T23:04:37.820Z,100.00
2022-09-18T23:07:09.804Z,100.00
2022-09-18T23:09:41.974Z,100.00
2022-09-18T23:12:12.127Z,100.00
2022-09-18T23:14:44.961Z,100.00
2022-09-18T23:17:16.230Z,100.00
2022-09-18T23:19:46.337Z,100.00
2022-09-18T23:22:16.394Z,100.00
2022-09-18T23:24:46.413Z,100.00
2022-09-18T23:27:16.474Z,100.00
2022-09-18T23:29:49.246Z,100.00
2022-09-18T23:32:19.444Z,100.00
2022-09-18T23:34:50.588Z,100.00
2022-09-18T23:37:20.383Z,100.00
2022-09-18T23:39:50.387Z,100.00
2022-09-18T23:42:25.249Z,100.00
2022-09-18T23:44:57.836Z,100.00
2022-09-18T23:47:27.922Z,100.00
2022-09-18T23:49:59.684Z,100.00
2022-09-18T23:52:29.791Z,100.00
2022-09-18T23:54:59.837Z,100.00
2022-09-18T23:57:36.394Z,100.00
